createdAt,value
2022-10-20T00:01:53.914Z,13.32
2022-10-20T00:04:20.748Z,12.75
2022-10-20T00:06:47.581Z,13.60
2022-10-20T00:09:14.531Z,13.20
2022-10-20T00:11:42.400Z,13.50
2022-10-20T00:14:10.161Z,13.13
2022-10-20T00:16:39.291Z,13.32
2022-10-20T00:19:06.406Z,13.73
2022-10-20T00:21:33.422Z,13.25
2022-10-20T00:24:01.609Z,13.43
2022-10-20T00:26:30.008Z,13.25
2022-10-20T00:28:57.617Z,14.32
2022-10-20T00:31:25.664Z,13.20
2022-10-20T00:33:53.473Z,13.40
2022-10-20T00:36:22.109Z,14.43
2022-10-20T00:38:49.097Z,14.48
2022-10-20T00:41:19.241Z,12.35
2022-10-20T00:43:51.101Z,15.05
2022-10-20T00:46:41.613Z,15.30
2022-10-20T00:49:18.210Z,17.58
2022-10-20T00:51:45.211Z,17.88
2022-10-20T00:54:20.598Z,18.38
2022-10-20T00:56:49.151Z,17.75
2022-10-20T00:59:19.906Z,19.40
2022-10-20T01:01:46.998Z,19.77
2022-10-20T01:04:14.128Z,20.45
2022-10-20T01:06:41.344Z,21.38
2022-10-20T01:09:08.766Z,20.70
2022-10-20T01:11:44.902Z,22.48
2022-10-20T01:14:32.859Z,21.55
2022-10-20T01:17:44.702Z,21.67
2022-10-20T01:20:24.174Z,22.10
2022-10-20T01:22:59.883Z,23.80
2022-10-20T01:25:40.325Z,23.17
2022-10-20T01:28:42.731Z,24.75
2022-10-20T01:31:49.454Z,25.15
2022-10-20T01:34:22.926Z,22.40
2022-10-20T01:36:59.353Z,24.48
2022-10-20T01:39:33.498Z,24.25
2022-10-20T01:42:08.608Z,26.98
2022-10-20T01:44:37.183Z,23.60
2022-10-20T01:47:05.863Z,25.70
2022-10-20T01:49:32.827Z,26.92
2022-10-20T01:52:00.662Z,27.58
2022-10-20T01:54:29.765Z,27.38
2022-10-20T01:57:40.831Z,26.27
2022-10-20T02:00:12.073Z,25.63
2022-10-20T02:03:09.832Z,27.58
2022-10-20T02:06:08.725Z,27.92
2022-10-20T02:08:41.549Z,25.05
2022-10-20T02:11:30.818Z,27.65
2022-10-20T02:13:58.604Z,27.83
2022-10-20T02:16:36.608Z,29.02
2022-10-20T02:19:06.100Z,28.67
2022-10-20T02:21:33.172Z,26.95
2022-10-20T02:24:03.934Z,24.33
2022-10-20T02:26:32.940Z,29.48
2022-10-20T02:29:04.813Z,28.25
2022-10-20T02:31:32.079Z,27.98
2022-10-20T02:33:59.124Z,27.05
2022-10-20T02:36:28.499Z,27.20
2022-10-20T02:38:56.188Z,30.55
2022-10-20T02:41:23.326Z,29.75
2022-10-20T02:43:50.151Z,30.98
2022-10-20T02:46:17.457Z,30.88
2022-10-20T02:48:44.478Z,29.27
2022-10-20T02:51:11.880Z,31.10
2022-10-20T02:53:38.943Z,30.00
2022-10-20T02:56:06.040Z,31.83
2022-10-20T02:58:32.872Z,30.48
2022-10-20T03:00:59.684Z,29.67
2022-10-20T03:03:26.620Z,30.77
2022-10-20T03:05:53.577Z,32.05
2022-10-20T03:08:20.614Z,31.58
2022-10-20T03:10:47.608Z,30.02
2022-10-20T03:13:15.692Z,29.60
2022-10-20T03:15:42.591Z,29.10
2022-10-20T03:18:09.460Z,29.02
2022-10-20T03:20:36.379Z,29.83
2022-10-20T03:23:03.175Z,28.83
2022-10-20T03:25:31.682Z,29.92
2022-10-20T03:27:58.880Z,28.70
2022-10-20T03:30:26.155Z,29.00
2022-10-20T03:32:53.127Z,27.75
2022-10-20T03:35:19.974Z,26.90
2022-10-20T03:37:46.760Z,26.25
2022-10-20T03:40:13.610Z,26.90
2022-10-20T03:42:40.459Z,24.13
2022-10-20T03:45:07.803Z,24.58
2022-10-20T03:47:34.796Z,26.75
2022-10-20T03:50:01.813Z,25.13
2022-10-20T03:52:28.594Z,27.38
2022-10-20T03:54:55.404Z,24.67
2022-10-20T03:57:22.608Z,24.65
2022-10-20T03:59:49.432Z,24.67
2022-10-20T04:02:31.574Z,23.95
2022-10-20T04:07:25.205Z,23.63
2022-10-20T04:09:52.004Z,24.05
2022-10-20T04:12:18.869Z,27.48
2022-10-20T04:14:45.703Z,31.42
2022-10-20T04:17:12.542Z,29.48
2022-10-20T04:19:39.372Z,30.92
2022-10-20T04:22:06.166Z,29.35
2022-10-20T04:24:32.999Z,29.60
2022-10-20T04:26:59.854Z,31.02
2022-10-20T04:29:26.712Z,30.67
2022-10-20T04:31:53.564Z,31.73
2022-10-20T04:34:20.500Z,29.52
2022-10-20T04:36:47.391Z,29.33
2022-10-20T04:39:14.409Z,28.67
2022-10-20T04:41:41.212Z,30.33
2022-10-20T04:44:08.084Z,30.55
2022-10-20T04:46:34.931Z,30.40
2022-10-20T04:49:01.743Z,30.73
2022-10-20T04:51:28.594Z,30.58
2022-10-20T04:53:55.398Z,30.27
2022-10-20T04:56:23.110Z,31.00
2022-10-20T04:58:52.222Z,30.08
2022-10-20T05:01:20.548Z,29.23
2022-10-20T05:06:21.202Z,29.35
2022-10-20T05:08:51.598Z,29.55
2022-10-20T05:11:21.066Z,28.00
2022-10-20T05:13:48.005Z,27.33
2022-10-20T05:16:17.897Z,27.90
2022-10-20T05:18:45.407Z,27.90
2022-10-20T05:21:21.520Z,26.67
2022-10-20T05:23:48.751Z,25.77
2022-10-20T05:26:19.254Z,27.15
2022-10-20T05:28:49.486Z,27.17
2022-10-20T05:31:17.927Z,26.13
2022-10-20T05:33:50.696Z,26.00
2022-10-20T05:36:21.508Z,26.13
2022-10-20T05:38:50.851Z,25.57
2022-10-20T05:41:19.836Z,26.80
2022-10-20T05:43:51.543Z,28.63
2022-10-20T05:46:19.644Z,26.73
2022-10-20T05:48:46.975Z,25.48
2022-10-20T05:51:17.599Z,27.55
2022-10-20T05:53:46.976Z,26.65
2022-10-20T05:56:19.829Z,27.70
2022-10-20T05:58:50.229Z,25.75
2022-10-20T06:01:20.433Z,27.05
2022-10-20T06:03:48.982Z,26.92
2022-10-20T06:06:16.718Z,26.83
2022-10-20T06:08:43.589Z,25.65
2022-10-20T06:11:11.896Z,27.60
2022-10-20T06:13:38.830Z,27.95
2022-10-20T06:16:20.467Z,25.80
2022-10-20T06:18:47.357Z,17.83
2022-10-20T06:21:23.230Z,25.58
2022-10-20T06:23:50.339Z,24.80
2022-10-20T06:26:24.947Z,23.52
2022-10-20T06:28:59.855Z,25.88
2022-10-20T06:31:32.600Z,23.85
2022-10-20T06:34:00.200Z,23.63
2022-10-20T06:36:27.917Z,25.23
2022-10-20T06:38:56.391Z,23.52
2022-10-20T06:41:23.499Z,24.50
2022-10-20T06:43:50.389Z,23.45
2022-10-20T06:46:18.809Z,25.02
2022-10-20T06:48:45.718Z,23.52
2022-10-20T06:51:14.832Z,24.50
2022-10-20T06:53:45.815Z,24.38
2022-10-20T06:58:43.474Z,21.95
2022-10-20T07:01:16.440Z,22.73
2022-10-20T07:03:44.877Z,22.63
2022-10-20T07:06:16.004Z,22.58
2022-10-20T07:08:42.840Z,22.77
2022-10-20T07:11:15.708Z,23.95
2022-10-20T07:13:43.262Z,21.65
2022-10-20T07:16:13.418Z,22.00
2022-10-20T07:18:40.866Z,22.50
2022-10-20T07:21:12.471Z,23.27
2022-10-20T07:23:39.736Z,22.85
2022-10-20T07:26:19.902Z,23.63
2022-10-20T07:28:54.669Z,22.70
2022-10-20T07:31:34.275Z,22.75
2022-10-20T07:34:12.837Z,23.90
2022-10-20T07:36:42.697Z,23.52
2022-10-20T07:39:11.312Z,23.98
2022-10-20T07:41:39.680Z,23.83
2022-10-20T07:44:07.627Z,22.75
2022-10-20T07:46:34.941Z,24.52
2022-10-20T07:49:42.791Z,25.35
2022-10-20T07:51:48.636Z,23.13
2022-10-20T07:54:15.464Z,24.75
2022-10-20T07:56:43.617Z,23.45
2022-10-20T07:59:11.650Z,23.15
2022-10-20T08:01:39.028Z,22.42
2022-10-20T08:04:05.918Z,23.52
2022-10-20T08:06:32.987Z,23.55
2022-10-20T08:09:00.306Z,25.15
2022-10-20T08:11:27.865Z,22.85
2022-10-20T08:13:54.691Z,24.65
2022-10-20T08:16:24.617Z,25.02
2022-10-20T08:19:06.007Z,24.10
2022-10-20T08:21:32.811Z,24.20
2022-10-20T08:23:59.679Z,24.08
2022-10-20T08:26:26.703Z,23.77
2022-10-20T08:28:54.579Z,22.92
2022-10-20T08:31:22.072Z,21.00
2022-10-20T08:33:52.336Z,24.52
2022-10-20T08:36:20.664Z,22.38
2022-10-20T08:38:48.069Z,23.20
2022-10-20T08:41:34.504Z,23.42
2022-10-20T08:44:04.873Z,23.17
2022-10-20T08:46:35.488Z,21.60
2022-10-20T08:49:05.027Z,20.60
2022-10-20T08:51:37.180Z,23.35
2022-10-20T08:54:05.304Z,21.65
2022-10-20T08:56:34.559Z,21.65
2022-10-20T08:59:03.437Z,19.95
2022-10-20T09:01:39.354Z,20.05
2022-10-20T09:04:20.850Z,22.23
2022-10-20T09:06:53.616Z,20.50
2022-10-20T09:09:22.178Z,22.63
2022-10-20T09:11:49.774Z,21.77
2022-10-20T09:14:16.842Z,19.73
2022-10-20T09:16:59.659Z,21.20
2022-10-20T09:19:28.554Z,22.00
2022-10-20T09:21:57.974Z,21.50
2022-10-20T09:24:29.966Z,19.67
2022-10-20T09:26:59.882Z,21.20
2022-10-20T09:29:38.833Z,20.00
2022-10-20T09:32:56.321Z,21.02
2022-10-20T09:37:53.705Z,18.77
2022-10-20T09:40:20.881Z,19.65
2022-10-20T09:42:54.872Z,20.67
2022-10-20T09:45:28.517Z,20.00
2022-10-20T09:48:01.792Z,20.27
2022-10-20T09:50:50.018Z,19.65
2022-10-20T09:53:23.981Z,20.35
2022-10-20T09:55:51.636Z,21.08
2022-10-20T09:58:30.885Z,21.88
2022-10-20T10:01:05.038Z,20.67
2022-10-20T10:03:46.586Z,19.65
2022-10-20T10:06:29.110Z,20.58
2022-10-20T10:08:58.159Z,20.10
2022-10-20T10:11:34.287Z,21.02
2022-10-20T10:14:01.771Z,20.05
2022-10-20T10:16:39.564Z,22.10
2022-10-20T10:19:18.067Z,18.67
2022-10-20T10:21:48.465Z,19.48
2022-10-20T10:24:48.571Z,19.40
2022-10-20T10:27:28.857Z,19.17
2022-10-20T10:30:15.975Z,18.75
2022-10-20T10:32:49.031Z,16.70
2022-10-20T10:35:48.322Z,17.65
2022-10-20T10:38:15.163Z,18.08
2022-10-20T10:40:47.869Z,18.08
2022-10-20T10:43:33.338Z,16.00
2022-10-20T10:46:03.710Z,15.30
2022-10-20T10:48:52.139Z,15.45
2022-10-20T10:51:28.059Z,16.33
2022-10-20T10:54:11.952Z,15.40
2022-10-20T10:56:47.545Z,15.48
2022-10-20T10:59:35.194Z,16.73
2022-10-20T11:02:35.909Z,14.20
2022-10-20T11:05:31.550Z,15.25
2022-10-20T11:08:13.317Z,14.98
2022-10-20T11:11:13.738Z,15.70
2022-10-20T11:14:14.461Z,15.88
2022-10-20T11:16:52.158Z,15.50
2022-10-20T11:19:21.605Z,17.15
2022-10-20T11:21:51.417Z,15.63
2022-10-20T11:24:30.388Z,14.93
2022-10-20T11:27:09.785Z,15.52
2022-10-20T11:29:45.679Z,14.00
2022-10-20T11:32:31.365Z,14.27
2022-10-20T11:35:13.133Z,15.80
2022-10-20T11:37:39.879Z,15.23
2022-10-20T11:40:09.456Z,15.70
2022-10-20T11:42:44.821Z,16.17
2022-10-20T11:45:26.928Z,16.35
2022-10-20T11:50:27.554Z,13.90
2022-10-20T11:52:58.959Z,15.48
2022-10-20T11:55:43.890Z,14.93
2022-10-20T11:58:36.968Z,13.70
2022-10-20T12:01:19.836Z,12.40
2022-10-20T12:04:11.216Z,14.27
2022-10-20T12:07:05.922Z,12.50
2022-10-20T12:09:45.817Z,11.90
2022-10-20T12:12:41.194Z,10.75
2022-10-20T12:15:30.340Z,12.20
2022-10-20T12:18:05.671Z,12.52
2022-10-20T12:20:38.385Z,12.73
2022-10-20T12:23:05.217Z,12.65
2022-10-20T12:25:39.682Z,12.13
2022-10-20T12:28:24.813Z,11.40
2022-10-20T12:31:00.188Z,10.73
2022-10-20T12:33:53.994Z,10.82
2022-10-20T12:36:34.108Z,10.73
2022-10-20T12:39:12.738Z,11.48
2022-10-20T12:41:57.500Z,10.63
2022-10-20T12:44:25.602Z,10.93
2022-10-20T12:47:17.075Z,10.52
2022-10-20T12:49:56.990Z,12.48
2022-10-20T12:52:32.481Z,11.35
2022-10-20T12:55:03.062Z,12.00
2022-10-20T12:57:41.747Z,12.18
2022-10-20T13:00:28.763Z,12.48
2022-10-20T13:02:59.901Z,12.75
2022-10-20T13:05:44.876Z,12.53
2022-10-20T13:08:20.908Z,12.68
2022-10-20T13:10:49.316Z,12.45
2022-10-20T13:13:19.112Z,13.00
2022-10-20T13:15:46.139Z,13.20
2022-10-20T13:18:12.948Z,11.23
2022-10-20T13:20:52.414Z,11.73
2022-10-20T13:23:39.470Z,12.77
2022-10-20T13:26:28.947Z,12.77
2022-10-20T13:28:59.008Z,11.73
2022-10-20T13:31:40.162Z,13.00
2022-10-20T13:34:39.356Z,12.17
2022-10-20T13:37:22.379Z,13.57
2022-10-20T13:40:23.356Z,12.40
2022-10-20T13:43:21.401Z,11.90
2022-10-20T13:45:54.109Z,13.20
2022-10-20T13:48:38.877Z,12.85
2022-10-20T13:51:20.497Z,13.95
2022-10-20T13:56:16.709Z,11.82
2022-10-20T13:59:06.236Z,13.20
2022-10-20T14:01:36.995Z,14.18
2022-10-20T14:04:23.746Z,13.30
2022-10-20T14:06:50.510Z,13.05
2022-10-20T14:09:23.709Z,14.07
2022-10-20T14:11:58.715Z,12.27
2022-10-20T14:14:27.441Z,11.88
2022-10-20T14:16:58.486Z,12.80
2022-10-20T14:19:28.235Z,13.20
2022-10-20T14:21:57.729Z,12.55
2022-10-20T14:24:34.252Z,11.98
2022-10-20T14:27:03.906Z,12.10
2022-10-20T14:29:38.504Z,13.02
2022-10-20T14:32:06.747Z,14.25
2022-10-20T14:34:35.914Z,12.95
2022-10-20T14:37:03.610Z,13.02
2022-10-20T14:39:37.832Z,12.95
2022-10-20T14:42:23.667Z,12.57
2022-10-20T14:44:51.847Z,12.73
2022-10-20T14:47:20.576Z,13.93
2022-10-20T14:49:52.374Z,12.50
2022-10-20T14:52:23.152Z,15.27
2022-10-20T14:54:51.597Z,14.55
2022-10-20T14:57:18.700Z,13.13
2022-10-20T15:00:04.640Z,12.50
2022-10-20T15:02:41.688Z,13.10
2022-10-20T15:05:26.050Z,17.38
2022-10-20T15:07:54.159Z,14.05
2022-10-20T15:10:24.168Z,13.57
2022-10-20T15:12:53.424Z,12.25
2022-10-20T15:15:22.402Z,13.05
2022-10-20T15:17:52.318Z,13.07
2022-10-20T15:20:34.013Z,12.32
2022-10-20T15:23:04.179Z,12.05
2022-10-20T15:25:51.894Z,14.60
2022-10-20T15:28:25.570Z,12.02
2022-10-20T15:30:52.621Z,11.68
2022-10-20T15:33:19.592Z,13.45
2022-10-20T15:35:47.603Z,12.35
2022-10-20T15:38:15.360Z,11.80
2022-10-20T15:40:42.824Z,10.48
2022-10-20T15:43:14.785Z,10.40
2022-10-20T15:48:10.832Z,11.80
2022-10-20T15:50:39.580Z,13.63
2022-10-20T15:53:07.049Z,11.57
2022-10-20T15:55:37.822Z,12.60
2022-10-20T15:58:04.562Z,11.95
2022-10-20T16:00:31.305Z,11.30
2022-10-20T16:02:58.081Z,9.85
2022-10-20T16:05:25.456Z,10.63
2022-10-20T16:07:54.209Z,15.25
2022-10-20T16:10:23.365Z,14.90
2022-10-20T16:12:50.489Z,12.18
2022-10-20T16:15:17.971Z,11.15
2022-10-20T16:17:46.445Z,9.48
2022-10-20T16:20:14.224Z,10.73
2022-10-20T16:22:41.346Z,9.75
2022-10-20T16:25:08.893Z,8.95
2022-10-20T16:27:35.856Z,11.07
2022-10-20T16:30:04.630Z,9.48
2022-10-20T16:32:34.530Z,9.88
2022-10-20T16:35:03.891Z,9.98
2022-10-20T16:37:32.369Z,9.00
2022-10-20T16:39:59.593Z,9.95
2022-10-20T16:42:27.511Z,10.25
2022-10-20T16:44:54.529Z,10.88
2022-10-20T16:47:21.317Z,9.85
2022-10-20T16:49:48.149Z,9.73
2022-10-20T16:52:14.880Z,9.40
2022-10-20T16:57:14.007Z,9.02
2022-10-20T16:59:42.586Z,9.30
2022-10-20T17:02:14.180Z,9.07
2022-10-20T17:04:42.543Z,9.30
2022-10-20T17:09:43.300Z,10.43
2022-10-20T17:12:10.081Z,10.02
2022-10-20T17:14:37.672Z,9.88
2022-10-20T17:17:04.467Z,10.32
2022-10-20T17:19:31.344Z,10.45
2022-10-20T17:21:58.161Z,11.15
2022-10-20T17:24:25.024Z,13.20
2022-10-20T17:26:51.868Z,11.88
2022-10-20T17:29:22.303Z,12.23
2022-10-20T17:31:50.563Z,11.55
2022-10-20T17:34:17.757Z,11.60
2022-10-20T17:36:44.577Z,11.00
2022-10-20T17:39:16.568Z,10.45
2022-10-20T17:44:10.583Z,9.73
2022-10-20T17:46:38.577Z,9.55
2022-10-20T17:49:06.008Z,10.55
2022-10-20T17:51:34.839Z,12.00
2022-10-20T17:54:02.750Z,10.57
2022-10-20T17:56:37.562Z,12.93
2022-10-20T17:59:07.412Z,13.70
2022-10-20T18:01:35.766Z,13.15
2022-10-20T18:04:02.616Z,13.68
2022-10-20T18:06:34.481Z,12.02
2022-10-20T18:09:04.917Z,11.95
2022-10-20T18:11:33.919Z,12.73
2022-10-20T18:14:01.288Z,12.60
2022-10-20T18:16:30.364Z,12.25
2022-10-20T18:21:25.558Z,12.05
2022-10-20T18:23:57.945Z,13.35
2022-10-20T18:26:25.471Z,11.70
2022-10-20T18:28:52.454Z,13.13
2022-10-20T18:31:22.690Z,13.05
2022-10-20T18:33:54.215Z,13.32
2022-10-20T18:36:21.052Z,11.85
2022-10-20T18:38:48.543Z,12.63
2022-10-20T18:41:21.214Z,11.55
2022-10-20T18:43:58.192Z,13.35
2022-10-20T18:46:27.099Z,13.40
2022-10-20T18:48:54.546Z,13.13
2022-10-20T18:51:21.495Z,14.15
2022-10-20T18:53:53.265Z,13.93
2022-10-20T18:56:21.768Z,12.98
2022-10-20T18:59:02.918Z,13.25
2022-10-20T19:01:35.317Z,12.65
2022-10-20T19:04:03.294Z,13.27
2022-10-20T19:06:32.185Z,12.23
2022-10-20T19:09:04.742Z,12.13
2022-10-20T19:11:34.326Z,13.88
2022-10-20T19:14:01.518Z,13.18
2022-10-20T19:16:31.978Z,12.80
2022-10-20T19:19:01.209Z,12.88
2022-10-20T19:21:29.387Z,13.82
2022-10-20T19:24:06.523Z,12.02
2022-10-20T19:27:25.164Z,12.30
2022-10-20T19:29:42.366Z,11.50
2022-10-20T19:32:09.251Z,12.38
2022-10-20T19:34:38.981Z,12.30
2022-10-20T19:37:06.600Z,13.02
2022-10-20T19:39:39.845Z,10.25
2022-10-20T19:42:08.051Z,10.80
2022-10-20T19:44:35.354Z,11.48
2022-10-20T19:47:02.565Z,12.40
2022-10-20T19:49:29.437Z,12.57
2022-10-20T19:51:56.447Z,12.10
2022-10-20T19:54:23.601Z,12.20
2022-10-20T19:56:50.510Z,10.70
2022-10-20T19:59:17.719Z,11.90
2022-10-20T20:01:44.634Z,10.27
2022-10-20T20:04:11.654Z,10.18
2022-10-20T20:06:38.540Z,9.65
2022-10-20T20:09:09.301Z,10.02
2022-10-20T20:11:37.742Z,10.48
2022-10-20T20:14:07.835Z,10.13
2022-10-20T20:16:34.934Z,9.77
2022-10-20T20:19:02.280Z,9.98
2022-10-20T20:21:29.568Z,9.95
2022-10-20T20:24:00.248Z,12.15
2022-10-20T20:26:35.908Z,11.43
2022-10-20T20:29:04.081Z,11.98
2022-10-20T20:31:31.456Z,12.10
2022-10-20T20:33:58.449Z,9.75
2022-10-20T20:36:27.469Z,10.75
2022-10-20T20:38:59.465Z,11.20
2022-10-20T20:41:28.305Z,10.68
2022-10-20T20:43:55.248Z,12.25
2022-10-20T20:46:24.280Z,11.95
2022-10-20T20:48:51.408Z,11.52
2022-10-20T20:51:18.440Z,10.45
2022-10-20T20:53:45.248Z,11.30
2022-10-20T20:56:14.732Z,10.98
2022-10-20T20:58:49.050Z,11.23
2022-10-20T21:01:22.146Z,10.38
2022-10-20T21:03:56.497Z,12.07
2022-10-20T21:06:33.182Z,11.30
2022-10-20T21:09:00.451Z,13.13
2022-10-20T21:11:27.827Z,13.63
2022-10-20T21:13:56.391Z,14.02
2022-10-20T21:16:29.010Z,15.13
2022-10-20T21:18:58.776Z,15.02
2022-10-20T21:21:31.470Z,14.18
2022-10-20T21:23:59.391Z,14.07
2022-10-20T21:26:28.518Z,14.18
2022-10-20T21:28:55.515Z,15.82
2022-10-20T21:31:25.118Z,16.17
2022-10-20T21:33:54.067Z,15.75
2022-10-20T21:36:22.105Z,17.85
2022-10-20T21:38:49.404Z,17.02
2022-10-20T21:41:22.902Z,16.42
2022-10-20T21:43:52.474Z,17.20
2022-10-20T21:46:35.958Z,17.48
2022-10-20T21:49:08.240Z,16.05
2022-10-20T21:51:37.362Z,15.57
2022-10-20T21:54:16.562Z,15.68
2022-10-20T21:56:44.749Z,13.27
2022-10-20T21:59:29.259Z,14.07
2022-10-20T22:01:58.396Z,13.38
2022-10-20T22:04:27.348Z,13.48
2022-10-20T22:06:54.992Z,14.00
2022-10-20T22:09:22.837Z,14.90
2022-10-20T22:11:58.484Z,13.95
2022-10-20T22:14:25.962Z,15.43
2022-10-20T22:16:52.899Z,13.48
2022-10-20T22:19:22.690Z,15.32
2022-10-20T22:21:51.459Z,13.75
2022-10-20T22:24:19.177Z,14.45
2022-10-20T22:26:46.647Z,13.48
2022-10-20T22:29:13.732Z,13.82
2022-10-20T22:31:41.268Z,14.82
2022-10-20T22:34:08.433Z,14.40
2022-10-20T22:36:35.466Z,13.85
2022-10-20T22:39:02.717Z,13.27
2022-10-20T22:41:29.593Z,12.82
2022-10-20T22:43:58.006Z,15.23
2022-10-20T22:46:24.982Z,12.55
2022-10-20T22:48:51.828Z,13.55
2022-10-20T22:51:18.733Z,12.88
2022-10-20T22:53:45.551Z,13.07
2022-10-20T22:56:15.820Z,12.90
2022-10-20T22:58:43.402Z,12.07
2022-10-20T23:01:13.482Z,12.07
2022-10-20T23:03:40.828Z,12.30
2022-10-20T23:06:17.128Z,12.43
2022-10-20T23:11:21.208Z,13.35
2022-10-20T23:13:49.895Z,13.15
2022-10-20T23:16:16.906Z,12.68
2022-10-20T23:18:43.985Z,12.32
2022-10-20T23:21:13.167Z,13.05
2022-10-20T23:23:40.078Z,11.43
2022-10-20T23:26:08.000Z,13.10
2022-10-20T23:28:35.636Z,12.63
2022-10-20T23:31:22.020Z,13.25
2022-10-20T23:33:53.553Z,11.40
2022-10-20T23:36:20.564Z,11.35
2022-10-20T23:38:47.702Z,11.90
2022-10-20T23:41:15.209Z,12.20
2022-10-20T23:43:42.066Z,12.13
2022-10-20T23:46:09.629Z,12.27
2022-10-20T23:48:36.598Z,11.90
2022-10-20T23:51:03.737Z,10.35
2022-10-20T23:53:30.873Z,11.50
2022-10-20T23:55:57.707Z,12.95
2022-10-20T23:58:24.701Z,12.20
